Terminal Aerodrome Forecast
Issued by NWS

Home | Current Version | Previous Version | Text Only | Print | Product List | Glossary On
Versions: 1 2 3 4 5 6 7 8 9 10 11 12 13 14
000
FTUS43 KOAX 231725
TAFSNY
TAF
KSNY 231725Z 2318/2418 VRB05KT P6SM BKN200
     FM232100 20015KT P6SM BKN200
     FM240000 01017G27KT P6SM VCSH SCT060 BKN150
     FM240400 01024G34KT P6SM -RA OVC045
     FM240700 01025G35KT 1SM -RA OVC015=

USA.gov is the U.S. government's official web portal to all federal, state and local government web resources and services.